sensor_id;sensor_type;location;lat;lon;timestamp;pressure;altitude;pressure_sealevel;temperature;humidity
64544;BME280;50936;51.660;5.616;2022-12-24T00:01:04;100253.88;;;9.85;100.00
64544;BME280;50936;51.660;5.616;2022-12-24T00:03:33;100262.09;;;9.83;100.00
64544;BME280;50936;51.660;5.616;2022-12-24T00:06:06;100259.97;;;9.76;100.00
64544;BME280;50936;51.660;5.616;2022-12-24T00:08:34;100263.88;;;9.72;100.00
64544;BME280;50936;51.660;5.616;2022-12-24T00:11:01;100272.91;;;9.71;100.00
64544;BME280;50936;51.660;5.616;2022-12-24T00:13:28;100276.59;;;9.70;100.00
64544;BME280;50936;51.660;5.616;2022-12-24T00:15:55;100272.91;;;9.71;100.00
64544;BME280;50936;51.660;5.616;2022-12-24T00:18:22;100286.94;;;9.76;100.00
64544;BME280;50936;51.660;5.616;2022-12-24T00:20:49;100285.22;;;9.75;100.00
64544;BME280;50936;51.660;5.616;2022-12-24T00:23:16;100287.66;;;9.78;100.00
64544;BME280;50936;51.660;5.616;2022-12-24T00:25:44;100296.38;;;9.81;100.00
64544;BME280;50936;51.660;5.616;2022-12-24T00:28:12;100298.13;;;9.82;100.00
64544;BME280;50936;51.660;5.616;2022-12-24T00:30:41;100304.47;;;9.81;100.00
64544;BME280;50936;51.660;5.616;2022-12-24T00:33:08;100297.50;;;9.79;100.00
64544;BME280;50936;51.660;5.616;2022-12-24T00:35:37;100302.66;;;9.82;100.00
64544;BME280;50936;51.660;5.616;2022-12-24T00:38:06;100306.09;;;9.84;100.00
64544;BME280;50936;51.660;5.616;2022-12-24T00:40:33;100308.56;;;9.87;100.00
64544;BME280;50936;51.660;5.616;2022-12-24T00:43:00;100312.97;;;9.88;100.00
64544;BME280;50936;51.660;5.616;2022-12-24T00:45:27;100320.13;;;9.89;100.00
64544;BME280;50936;51.660;5.616;2022-12-24T00:47:54;100320.34;;;9.86;100.00
64544;BME280;50936;51.660;5.616;2022-12-24T00:50:21;100330.38;;;9.84;100.00
64544;BME280;50936;51.660;5.616;2022-12-24T00:52:48;100329.63;;;9.82;100.00
64544;BME280;50936;51.660;5.616;2022-12-24T00:55:14;100334.78;;;9.85;100.00
64544;BME280;50936;51.660;5.616;2022-12-24T00:57:41;100332.22;;;9.83;100.00
64544;BME280;50936;51.660;5.616;2022-12-24T01:00:08;100336.97;;;9.80;100.00
64544;BME280;50936;51.660;5.616;2022-12-24T01:02:36;100338.47;;;9.84;100.00
64544;BME280;50936;51.660;5.616;2022-12-24T01:05:03;100348.41;;;9.83;100.00
64544;BME280;50936;51.660;5.616;2022-12-24T01:07:41;100350.97;;;9.85;100.00
64544;BME280;50936;51.660;5.616;2022-12-24T01:10:12;100355.41;;;9.86;100.00
64544;BME280;50936;51.660;5.616;2022-12-24T01:12:40;100359.81;;;9.87;100.00
64544;BME280;50936;51.660;5.616;2022-12-24T01:15:09;100351.22;;;9.82;100.00
64544;BME280;50936;51.660;5.616;2022-12-24T01:17:37;100356.59;;;9.82;100.00
64544;BME280;50936;51.660;5.616;2022-12-24T01:20:15;100354.66;;;9.84;100.00
64544;BME280;50936;51.660;5.616;2022-12-24T01:22:43;100364.44;;;9.85;100.00
64544;BME280;50936;51.660;5.616;2022-12-24T01:25:10;100367.16;;;9.85;100.00
64544;BME280;50936;51.660;5.616;2022-12-24T01:27:37;100363.50;;;9.86;100.00
64544;BME280;50936;51.660;5.616;2022-12-24T01:30:06;100372.78;;;9.82;100.00
64544;BME280;50936;51.660;5.616;2022-12-24T01:32:35;100384.75;;;9.78;100.00
64544;BME280;50936;51.660;5.616;2022-12-24T01:35:02;100392.63;;;9.81;100.00
64544;BME280;50936;51.660;5.616;2022-12-24T01:37:29;100381.84;;;9.81;100.00
64544;BME280;50936;51.660;5.616;2022-12-24T01:39:56;100387.03;;;9.84;100.00
64544;BME280;50936;51.660;5.616;2022-12-24T01:42:47;100392.41;;;9.84;100.00
64544;BME280;50936;51.660;5.616;2022-12-24T01:48:39;100396.75;;;9.74;100.00
64544;BME280;50936;51.660;5.616;2022-12-24T01:54:04;100398.41;;;9.63;100.00
64544;BME280;50936;51.660;5.616;2022-12-24T01:56:44;100402.63;;;9.55;100.00
64544;BME280;50936;51.660;5.616;2022-12-24T01:59:15;100403.06;;;9.49;100.00
64544;BME280;50936;51.660;5.616;2022-12-24T02:01:46;100395.53;;;9.41;100.00
64544;BME280;50936;51.660;5.616;2022-12-24T02:04:32;100419.25;;;9.36;100.00
64544;BME280;50936;51.660;5.616;2022-12-24T02:07:05;100419.47;;;9.33;100.00
64544;BME280;50936;51.660;5.616;2022-12-24T02:09:34;100431.00;;;9.35;100.00
64544;BME280;50936;51.660;5.616;2022-12-24T02:12:03;100429.16;;;9.35;100.00
64544;BME280;50936;51.660;5.616;2022-12-24T02:14:32;100438.09;;;9.36;100.00
64544;BME280;50936;51.660;5.616;2022-12-24T02:28:28;100431.31;;;9.43;100.00
64544;BME280;50936;51.660;5.616;2022-12-24T02:31:17;100437.13;;;9.50;100.00
64544;BME280;50936;51.660;5.616;2022-12-24T02:33:57;100438.00;;;9.50;100.00
64544;BME280;50936;51.660;5.616;2022-12-24T02:36:35;100435.84;;;9.55;100.00
64544;BME280;50936;51.660;5.616;2022-12-24T02:39:16;100439.06;;;9.60;100.00
64544;BME280;50936;51.660;5.616;2022-12-24T02:41:52;100440.03;;;9.59;100.00
64544;BME280;50936;51.660;5.616;2022-12-24T02:44:38;100436.28;;;9.62;100.00
64544;BME280;50936;51.660;5.616;2022-12-24T02:47:09;100440.78;;;9.61;100.00
64544;BME280;50936;51.660;5.616;2022-12-24T02:49:37;100434.41;;;9.62;100.00
64544;BME280;50936;51.660;5.616;2022-12-24T02:52:04;100436.66;;;9.69;100.00
64544;BME280;50936;51.660;5.616;2022-12-24T02:54:31;100444.66;;;9.70;100.00
64544;BME280;50936;51.660;5.616;2022-12-24T03:06:08;100457.81;;;9.75;100.00
64544;BME280;50936;51.660;5.616;2022-12-24T03:08:59;100462.31;;;9.74;100.00
64544;BME280;50936;51.660;5.616;2022-12-24T03:11:35;100448.34;;;9.69;100.00
64544;BME280;50936;51.660;5.616;2022-12-24T03:14:05;100445.31;;;9.61;100.00
64544;BME280;50936;51.660;5.616;2022-12-24T03:16:32;100463.78;;;9.54;100.00
64544;BME280;50936;51.660;5.616;2022-12-24T03:18:59;100452.47;;;9.49;100.00
64544;BME280;50936;51.660;5.616;2022-12-24T03:21:30;100445.34;;;9.48;100.00
64544;BME280;50936;51.660;5.616;2022-12-24T03:24:01;100456.13;;;9.48;100.00
64544;BME280;50936;51.660;5.616;2022-12-24T03:26:29;100452.22;;;9.52;100.00
64544;BME280;50936;51.660;5.616;2022-12-24T03:28:58;100453.75;;;9.56;100.00
64544;BME280;50936;51.660;5.616;2022-12-24T03:31:25;100463.44;;;9.59;100.00
64544;BME280;50936;51.660;5.616;2022-12-24T03:33:52;100469.47;;;9.62;100.00
64544;BME280;50936;51.660;5.616;2022-12-24T03:36:19;100464.09;;;9.62;100.00
64544;BME280;50936;51.660;5.616;2022-12-24T03:38:46;100469.25;;;9.66;100.00
64544;BME280;50936;51.660;5.616;2022-12-24T03:41:13;100458.47;;;9.66;100.00
64544;BME280;50936;51.660;5.616;2022-12-24T03:43:39;100468.28;;;9.67;100.00
64544;BME280;50936;51.660;5.616;2022-12-24T03:46:07;100473.47;;;9.70;100.00
64544;BME280;50936;51.660;5.616;2022-12-24T03:48:35;100470.75;;;9.70;100.00
64544;BME280;50936;51.660;5.616;2022-12-24T03:51:02;100464.53;;;9.69;100.00
64544;BME280;50936;51.660;5.616;2022-12-24T03:53:30;100469.16;;;9.67;100.00
64544;BME280;50936;51.660;5.616;2022-12-24T03:55:57;100479.81;;;9.69;100.00
64544;BME280;50936;51.660;5.616;2022-12-24T03:58:24;100478.00;;;9.69;100.00
64544;BME280;50936;51.660;5.616;2022-12-24T04:00:52;100473.47;;;9.70;100.00
64544;BME280;50936;51.660;5.616;2022-12-24T04:03:19;100488.66;;;9.71;100.00
64544;BME280;50936;51.660;5.616;2022-12-24T04:05:47;100479.94;;;9.67;100.00
64544;BME280;50936;51.660;5.616;2022-12-24T04:08:14;100490.59;;;9.69;100.00
64544;BME280;50936;51.660;5.616;2022-12-24T04:10:40;100488.66;;;9.71;100.00
64544;BME280;50936;51.660;5.616;2022-12-24T04:13:07;100486.72;;;9.73;100.00
64544;BME280;50936;51.660;5.616;2022-12-24T04:15:34;100485.75;;;9.74;100.00
64544;BME280;50936;51.660;5.616;2022-12-24T04:18:01;100490.19;;;9.75;100.00
64544;BME280;50936;51.660;5.616;2022-12-24T04:20:27;100493.41;;;9.80;100.00
64544;BME280;50936;51.660;5.616;2022-12-24T04:22:54;100498.56;;;9.83;100.00
64544;BME280;50936;51.660;5.616;2022-12-24T04:25:21;100501.81;;;9.88;100.00
64544;BME280;50936;51.660;5.616;2022-12-24T04:27:48;100492.50;;;9.92;100.00
64544;BME280;50936;51.660;5.616;2022-12-24T04:30:14;100495.94;;;9.94;100.00
64544;BME280;50936;51.660;5.616;2022-12-24T04:32:41;100492.09;;;9.98;100.00
64544;BME280;50936;51.660;5.616;2022-12-24T04:35:08;100498.97;;;10.02;100.00
64544;BME280;50936;51.660;5.616;2022-12-24T04:37:35;100507.81;;;10.05;100.00
64544;BME280;50936;51.660;5.616;2022-12-24T04:40:02;100514.94;;;10.06;100.00
64544;BME280;50936;51.660;5.616;2022-12-24T04:42:30;100505.88;;;10.07;100.00
64544;BME280;50936;51.660;5.616;2022-12-24T04:44:56;100507.59;;;10.08;100.00
64544;BME280;50936;51.660;5.616;2022-12-24T04:47:23;100508.56;;;10.07;100.00
64544;BME280;50936;51.660;5.616;2022-12-24T04:49:50;100516.88;;;10.03;100.00
64544;BME280;50936;51.660;5.616;2022-12-24T04:52:17;100515.25;;;10.01;100.00
64544;BME280;50936;51.660;5.616;2022-12-24T04:54:44;100511.72;;;10.00;100.00
64544;BME280;50936;51.660;5.616;2022-12-24T04:57:10;100522.50;;;10.00;100.00
64544;BME280;50936;51.660;5.616;2022-12-24T04:59:37;100520.78;;;9.99;100.00
64544;BME280;50936;51.660;5.616;2022-12-24T05:02:04;100510.84;;;10.00;100.00
64544;BME280;50936;51.660;5.616;2022-12-24T05:04:31;100523.25;;;10.02;100.00
64544;BME280;50936;51.660;5.616;2022-12-24T05:06:58;100520.56;;;10.02;100.00
64544;BME280;50936;51.660;5.616;2022-12-24T05:09:25;100520.44;;;10.04;100.00
64544;BME280;50936;51.660;5.616;2022-12-24T05:11:52;100529.41;;;10.05;100.00
64544;BME280;50936;51.660;5.616;2022-12-24T05:14:18;100516.88;;;10.03;100.00
64544;BME280;50936;51.660;5.616;2022-12-24T05:16:45;100516.13;;;10.01;100.00
64544;BME280;50936;51.660;5.616;2022-12-24T05:19:13;100520.78;;;9.99;100.00
64544;BME280;50936;51.660;5.616;2022-12-24T05:21:40;100525.41;;;9.97;100.00
64544;BME280;50936;51.660;5.616;2022-12-24T05:24:08;100528.88;;;9.99;100.00
64544;BME280;50936;51.660;5.616;2022-12-24T05:26:56;100522.63;;;9.99;100.00
64544;BME280;50936;51.660;5.616;2022-12-24T05:29:24;100519.06;;;9.98;100.00
64544;BME280;50936;51.660;5.616;2022-12-24T05:31:51;100510.22;;;9.96;100.00
64544;BME280;50936;51.660;5.616;2022-12-24T05:34:18;100513.13;;;9.93;100.00
64544;BME280;50936;51.660;5.616;2022-12-24T05:36:45;100532.22;;;9.90;100.00
64544;BME280;50936;51.660;5.616;2022-12-24T05:39:14;100525.34;;;9.86;100.00
64544;BME280;50936;51.660;5.616;2022-12-24T05:41:43;100519.09;;;9.86;100.00
64544;BME280;50936;51.660;5.616;2022-12-24T05:44:10;100527.03;;;9.87;100.00
64544;BME280;50936;51.660;5.616;2022-12-24T05:46:38;100536.88;;;9.88;100.00
64544;BME280;50936;51.660;5.616;2022-12-24T05:49:05;100536.75;;;9.90;100.00
64544;BME280;50936;51.660;5.616;2022-12-24T05:51:31;100537.63;;;9.90;100.00
64544;BME280;50936;51.660;5.616;2022-12-24T05:53:58;100540.41;;;9.89;100.00
64544;BME280;50936;51.660;5.616;2022-12-24T05:56:25;100542.25;;;9.88;100.00
64544;BME280;50936;51.660;5.616;2022-12-24T05:58:52;100550.34;;;9.88;100.00
64544;BME280;50936;51.660;5.616;2022-12-24T06:01:21;100546.69;;;9.89;100.00
64544;BME280;50936;51.660;5.616;2022-12-24T06:03:48;100560.28;;;9.88;100.00
64544;BME280;50936;51.660;5.616;2022-12-24T06:06:21;100564.81;;;9.87;100.00
64544;BME280;50936;51.660;5.616;2022-12-24T06:08:50;100568.28;;;9.89;100.00
64544;BME280;50936;51.660;5.616;2022-12-24T06:11:21;100570.84;;;9.91;100.00
64544;BME280;50936;51.660;5.616;2022-12-24T06:13:49;100575.19;;;9.93;100.00
64544;BME280;50936;51.660;5.616;2022-12-24T06:16:19;100575.19;;;9.93;100.00
64544;BME280;50936;51.660;5.616;2022-12-24T06:18:46;100573.44;;;9.92;100.00
64544;BME280;50936;51.660;5.616;2022-12-24T06:21:14;100574.09;;;9.96;100.00
64544;BME280;50936;51.660;5.616;2022-12-24T06:23:43;100573.22;;;9.95;100.00
64544;BME280;50936;51.660;5.616;2022-12-24T06:26:13;100586.72;;;9.95;100.00
64544;BME280;50936;51.660;5.616;2022-12-24T06:28:43;100589.22;;;9.98;100.00
64544;BME280;50936;51.660;5.616;2022-12-24T06:31:13;100587.56;;;9.96;100.00
64544;BME280;50936;51.660;5.616;2022-12-24T06:33:43;100583.38;;;9.92;100.00
64544;BME280;50936;51.660;5.616;2022-12-24T06:36:16;100590.72;;;9.90;100.00
64544;BME280;50936;51.660;5.616;2022-12-24T06:38:49;100603.56;;;9.86;100.00
64544;BME280;50936;51.660;5.616;2022-12-24T06:41:18;100603.00;;;9.81;100.00
64544;BME280;50936;51.660;5.616;2022-12-24T06:43:47;100599.75;;;9.76;100.00
64544;BME280;50936;51.660;5.616;2022-12-24T06:46:16;100598.38;;;9.70;100.00
64544;BME280;50936;51.660;5.616;2022-12-24T06:48:44;100599.56;;;9.66;100.00
64544;BME280;50936;51.660;5.616;2022-12-24T06:51:12;100602.56;;;9.61;100.00
64544;BME280;50936;51.660;5.616;2022-12-24T06:53:41;100602.78;;;9.58;100.00
64544;BME280;50936;51.660;5.616;2022-12-24T06:56:10;100612.06;;;9.54;100.00
64544;BME280;50936;51.660;5.616;2022-12-24T06:58:39;100604.94;;;9.53;100.00
64544;BME280;50936;51.660;5.616;2022-12-24T07:01:08;100606.69;;;9.54;100.00
64544;BME280;50936;51.660;5.616;2022-12-24T07:03:37;100597.69;;;9.54;100.00
64544;BME280;50936;51.660;5.616;2022-12-24T07:06:06;100612.06;;;9.54;100.00
64544;BME280;50936;51.660;5.616;2022-12-24T07:08:34;100617.47;;;9.54;100.00
64544;BME280;50936;51.660;5.616;2022-12-24T07:11:02;100621.97;;;9.54;100.00
64544;BME280;50936;51.660;5.616;2022-12-24T07:13:29;100620.91;;;9.56;100.00
64544;BME280;50936;51.660;5.616;2022-12-24T07:15:59;100623.38;;;9.59;100.00
64544;BME280;50936;51.660;5.616;2022-12-24T07:18:28;100631.47;;;9.59;100.00
64544;BME280;50936;51.660;5.616;2022-12-24T07:20:56;100631.91;;;9.53;100.00
64544;BME280;50936;51.660;5.616;2022-12-24T07:23:23;100632.09;;;9.50;100.00
64544;BME280;50936;51.660;5.616;2022-12-24T07:25:50;100631.34;;;9.48;100.00
64544;BME280;50936;51.660;5.616;2022-12-24T07:28:17;100636.72;;;9.48;100.00
64544;BME280;50936;51.660;5.616;2022-12-24T07:30:52;100639.44;;;9.48;100.00
64544;BME280;50936;51.660;5.616;2022-12-24T07:33:19;100642.69;;;9.53;100.00
64544;BME280;50936;51.660;5.616;2022-12-24T07:35:46;100639.66;;;9.58;100.00
64544;BME280;50936;51.660;5.616;2022-12-24T07:38:21;100652.84;;;9.62;100.00
64544;BME280;50936;51.660;5.616;2022-12-24T07:40:48;100649.19;;;9.63;100.00
64544;BME280;50936;51.660;5.616;2022-12-24T07:43:14;100664.69;;;9.60;100.00
64544;BME280;50936;51.660;5.616;2022-12-24T07:45:41;100663.81;;;9.59;100.00
64544;BME280;50936;51.660;5.616;2022-12-24T07:48:08;100676.53;;;9.57;100.00
64544;BME280;50936;51.660;5.616;2022-12-24T07:50:35;100669.63;;;9.53;100.00
64544;BME280;50936;51.660;5.616;2022-12-24T07:53:02;100670.81;;;9.49;100.00
64544;BME280;50936;51.660;5.616;2022-12-24T07:55:29;100675.47;;;9.47;100.00
64544;BME280;50936;51.660;5.616;2022-12-24T07:57:55;100672.97;;;9.44;100.00
64544;BME280;50936;51.660;5.616;2022-12-24T08:00:22;100688.56;;;9.39;100.00
64544;BME280;50936;51.660;5.616;2022-12-24T08:02:49;100695.91;;;9.37;100.00
64544;BME280;50936;51.660;5.616;2022-12-24T08:05:19;100706.69;;;9.37;100.00
64544;BME280;50936;51.660;5.616;2022-12-24T08:07:45;100710.13;;;9.39;100.00
64544;BME280;50936;51.660;5.616;2022-12-24T08:10:12;100704.75;;;9.39;100.00
64544;BME280;50936;51.660;5.616;2022-12-24T08:12:39;100715.34;;;9.42;100.00
64544;BME280;50936;51.660;5.616;2022-12-24T08:15:06;100717.94;;;9.43;100.00
64544;BME280;50936;51.660;5.616;2022-12-24T08:17:33;100729.56;;;9.44;100.00
64544;BME280;50936;51.660;5.616;2022-12-24T08:20:00;100725.03;;;9.44;100.00
64544;BME280;50936;51.660;5.616;2022-12-24T08:22:26;100743.81;;;9.46;100.00
64544;BME280;50936;51.660;5.616;2022-12-24T08:24:53;100732.16;;;9.46;100.00
64544;BME280;50936;51.660;5.616;2022-12-24T08:27:20;100742.28;;;9.42;100.00
64544;BME280;50936;51.660;5.616;2022-12-24T08:29:47;100737.09;;;9.39;100.00
64544;BME280;50936;51.660;5.616;2022-12-24T08:32:14;100751.31;;;9.41;100.00
64544;BME280;50936;51.660;5.616;2022-12-24T08:34:41;100759.22;;;9.44;100.00
64544;BME280;50936;51.660;5.616;2022-12-24T08:37:08;100749.19;;;9.46;100.00
64544;BME280;50936;51.660;5.616;2022-12-24T08:39:34;100744.66;;;9.47;100.00
64544;BME280;50936;51.660;5.616;2022-12-24T08:42:01;100752.84;;;9.45;100.00
64544;BME280;50936;51.660;5.616;2022-12-24T08:44:28;100757.38;;;9.44;100.00
64544;BME280;50936;51.660;5.616;2022-12-24T08:46:55;100753.63;;;9.47;100.00
64544;BME280;50936;51.660;5.616;2022-12-24T08:49:22;100760.66;;;9.50;100.00
64544;BME280;50936;51.660;5.616;2022-12-24T08:51:50;100761.59;;;9.49;100.00
64544;BME280;50936;51.660;5.616;2022-12-24T08:54:17;100767.13;;;9.47;100.00
64544;BME280;50936;51.660;5.616;2022-12-24T08:56:44;100774.41;;;9.45;100.00
64544;BME280;50936;51.660;5.616;2022-12-24T08:59:11;100774.53;;;9.43;100.00
64544;BME280;50936;51.660;5.616;2022-12-24T09:01:38;100777.25;;;9.43;100.00
64544;BME280;50936;51.660;5.616;2022-12-24T09:04:05;100773.66;;;9.43;100.00
64544;BME280;50936;51.660;5.616;2022-12-24T09:06:32;100791.16;;;9.50;100.00
64544;BME280;50936;51.660;5.616;2022-12-24T09:08:59;100796.69;;;9.61;100.00
64544;BME280;50936;51.660;5.616;2022-12-24T09:11:26;100790.91;;;9.68;100.00
64544;BME280;50936;51.660;5.616;2022-12-24T09:13:53;100798.50;;;9.75;100.00
64544;BME280;50936;51.660;5.616;2022-12-24T09:16:20;100796.03;;;9.85;100.00
64544;BME280;50936;51.660;5.616;2022-12-24T09:18:48;100801.78;;;9.93;100.00
64544;BME280;50936;51.660;5.616;2022-12-24T09:21:15;100810.22;;;10.01;100.00
64544;BME280;50936;51.660;5.616;2022-12-24T09:23:45;100805.38;;;10.07;100.00
64544;BME280;50936;51.660;5.616;2022-12-24T09:26:24;100808.09;;;10.07;100.00
64544;BME280;50936;51.660;5.616;2022-12-24T09:28:56;100812.63;;;10.06;100.00
64544;BME280;50936;51.660;5.616;2022-12-24T09:31:23;100826.03;;;10.08;100.00
64544;BME280;50936;51.660;5.616;2022-12-24T09:33:51;100827.72;;;10.09;100.00
64544;BME280;50936;51.660;5.616;2022-12-24T09:36:18;100837.75;;;10.07;100.00
64544;BME280;50936;51.660;5.616;2022-12-24T09:38:46;100835.91;;;10.07;100.00
64544;BME280;50936;51.660;5.616;2022-12-24T09:44:43;100845.66;;;10.10;100.00
64544;BME280;50936;51.660;5.616;2022-12-24T09:47:23;100858.16;;;10.11;100.00
64544;BME280;50936;51.660;5.616;2022-12-24T09:49:56;100864.31;;;10.13;100.00
64544;BME280;50936;51.660;5.616;2022-12-24T09:52:34;100852.38;;;10.17;100.00
64544;BME280;50936;51.660;5.616;2022-12-24T09:55:28;100864.13;;;10.16;100.00
64544;BME280;50936;51.660;5.616;2022-12-24T09:58:01;100854.31;;;10.15;100.00
64544;BME280;50936;51.660;5.616;2022-12-24T10:00:32;100850.06;;;10.11;100.00
64544;BME280;50936;51.660;5.616;2022-12-24T10:03:15;100859.50;;;10.18;100.00
64544;BME280;50936;51.660;5.616;2022-12-24T10:06:01;100867.72;;;10.29;100.00
64544;BME280;50936;51.660;5.616;2022-12-24T10:08:50;100876.00;;;10.40;100.00
64544;BME280;50936;51.660;5.616;2022-12-24T10:11:23;100874.94;;;10.56;100.00
64544;BME280;50936;51.660;5.616;2022-12-24T10:26:23;100877.00;;;11.16;100.00
64544;BME280;50936;51.660;5.616;2022-12-24T10:28:57;100867.59;;;11.22;100.00
64544;BME280;50936;51.660;5.616;2022-12-24T10:31:38;100870.84;;;11.27;100.00
64544;BME280;50936;51.660;5.616;2022-12-24T10:34:19;100867.69;;;11.33;100.00
64544;BME280;50936;51.660;5.616;2022-12-24T10:36:49;100874.47;;;11.39;100.00
64544;BME280;50936;51.660;5.616;2022-12-24T10:39:22;100868.41;;;11.48;100.00
64544;BME280;50936;51.660;5.616;2022-12-24T10:41:55;100863.44;;;11.55;100.00
64544;BME280;50936;51.660;5.616;2022-12-24T10:44:30;100871.44;;;11.56;100.00
64544;BME280;50936;51.660;5.616;2022-12-24T10:46:59;100876.31;;;11.51;100.00
64544;BME280;50936;51.660;5.616;2022-12-24T10:49:38;100886.84;;;11.43;100.00
64544;BME280;50936;51.660;5.616;2022-12-24T10:52:20;100879.38;;;11.34;100.00
64544;BME280;50936;51.660;5.616;2022-12-24T10:57:44;100884.28;;;11.16;100.00
64544;BME280;50936;51.660;5.616;2022-12-24T11:00:23;100885.78;;;11.07;100.00
64544;BME280;50936;51.660;5.616;2022-12-24T11:05:38;100881.03;;;10.98;100.00
64544;BME280;50936;51.660;5.616;2022-12-24T11:08:14;100884.69;;;10.97;100.00
64544;BME280;50936;51.660;5.616;2022-12-24T11:10:57;100892.03;;;10.95;100.00
64544;BME280;50936;51.660;5.616;2022-12-24T11:13:34;100891.53;;;10.90;100.00
64544;BME280;50936;51.660;5.616;2022-12-24T11:16:27;100897.13;;;10.87;100.00
64544;BME280;50936;51.660;5.616;2022-12-24T11:19:03;100894.22;;;10.90;100.00
64544;BME280;50936;51.660;5.616;2022-12-24T11:21:40;100901.13;;;10.94;100.00
64544;BME280;50936;51.660;5.616;2022-12-24T11:24:29;100892.69;;;10.98;100.00
64544;BME280;50936;51.660;5.616;2022-12-24T11:27:21;100884.69;;;10.97;100.00
64544;BME280;50936;51.660;5.616;2022-12-24T11:33:15;100897.03;;;11.01;100.00
64544;BME280;50936;51.660;5.616;2022-12-24T11:35:46;100898.53;;;11.05;100.00
64544;BME280;50936;51.660;5.616;2022-12-24T11:38:17;100900.25;;;11.06;100.00
64544;BME280;50936;51.660;5.616;2022-12-24T11:40:49;100900.03;;;11.09;100.00
64544;BME280;50936;51.660;5.616;2022-12-24T11:43:24;100903.75;;;11.08;100.00
64544;BME280;50936;51.660;5.616;2022-12-24T11:46:41;100907.84;;;11.01;100.00
64544;BME280;50936;51.660;5.616;2022-12-24T11:51:39;100899.19;;;10.96;100.00
64544;BME280;50936;51.660;5.616;2022-12-24T11:54:29;100910.22;;;10.93;100.00
64544;BME280;50936;51.660;5.616;2022-12-24T11:57:00;100906.75;;;10.91;100.00
64544;BME280;50936;51.660;5.616;2022-12-24T11:59:33;100903.09;;;10.92;100.00
64544;BME280;50936;51.660;5.616;2022-12-24T12:02:19;100898.34;;;10.95;100.00
64544;BME280;50936;51.660;5.616;2022-12-24T12:04:57;100898.44;;;10.94;100.00
64544;BME280;50936;51.660;5.616;2022-12-24T12:07:36;100901.34;;;10.91;100.00
64544;BME280;50936;51.660;5.616;2022-12-24T12:10:06;100904.38;;;10.86;100.00
64544;BME280;50936;51.660;5.616;2022-12-24T12:12:45;100908.91;;;10.86;100.00
64544;BME280;50936;51.660;5.616;2022-12-24T12:15:26;100914.09;;;10.89;100.00
64544;BME280;50936;51.660;5.616;2022-12-24T12:18:08;100913.91;;;10.92;100.00
64544;BME280;50936;51.660;5.616;2022-12-24T12:20:43;100913.66;;;10.95;100.00
64544;BME280;50936;51.660;5.616;2022-12-24T12:26:11;100918.84;;;10.85;100.00
64544;BME280;50936;51.660;5.616;2022-12-24T12:28:46;100919.06;;;10.82;100.00
64544;BME280;50936;51.660;5.616;2022-12-24T12:31:23;100926.84;;;10.87;100.00
64544;BME280;50936;51.660;5.616;2022-12-24T12:33:56;100931.16;;;10.89;100.00
64544;BME280;50936;51.660;5.616;2022-12-24T12:36:30;100923.72;;;10.93;100.00
64544;BME280;50936;51.660;5.616;2022-12-24T12:39:01;100924.72;;;11.05;100.00
64544;BME280;50936;51.660;5.616;2022-12-24T12:41:49;100927.06;;;11.09;100.00
64544;BME280;50936;51.660;5.616;2022-12-24T12:50:37;100935.94;;;11.11;100.00
64544;BME280;50936;51.660;5.616;2022-12-24T12:53:35;100935.94;;;11.11;100.00
64544;BME280;50936;51.660;5.616;2022-12-24T12:56:35;100952.41;;;11.08;100.00
64544;BME280;50936;51.660;5.616;2022-12-24T13:02:08;100952.91;;;11.01;100.00
64544;BME280;50936;51.660;5.616;2022-12-24T13:07:26;100952.13;;;10.86;100.00
64544;BME280;50936;51.660;5.616;2022-12-24T13:13:43;100967.88;;;10.66;100.00
64544;BME280;50936;51.660;5.616;2022-12-24T13:21:41;100970.44;;;10.55;100.00
64544;BME280;50936;51.660;5.616;2022-12-24T13:24:19;100965.81;;;10.57;100.00
64544;BME280;50936;51.660;5.616;2022-12-24T13:27:01;100973.91;;;10.57;100.00
64544;BME280;50936;51.660;5.616;2022-12-24T13:29:41;100969.38;;;10.57;100.00
64544;BME280;50936;51.660;5.616;2022-12-24T13:32:50;100970.03;;;10.61;100.00
64544;BME280;50936;51.660;5.616;2022-12-24T13:37:46;100979.88;;;10.75;100.00
64544;BME280;50936;51.660;5.616;2022-12-24T13:40:24;100980.25;;;10.83;100.00
64544;BME280;50936;51.660;5.616;2022-12-24T13:50:46;100978.97;;;11.66;100.00
64544;BME280;50936;51.660;5.616;2022-12-24T13:56:25;100993.22;;;11.81;100.00
64544;BME280;50936;51.660;5.616;2022-12-24T13:59:09;100994.97;;;11.82;100.00
64544;BME280;50936;51.660;5.616;2022-12-24T14:01:45;100994.09;;;11.81;100.00
64544;BME280;50936;51.660;5.616;2022-12-24T14:04:23;100993.47;;;11.65;100.00
64544;BME280;50936;51.660;5.616;2022-12-24T14:06:54;100994.78;;;11.46;100.00
64544;BME280;50936;51.660;5.616;2022-12-24T14:09:27;101000.63;;;11.40;100.00
64544;BME280;50936;51.660;5.616;2022-12-24T14:14:36;101012.09;;;11.56;100.00
64544;BME280;50936;51.660;5.616;2022-12-24T14:17:20;101013.19;;;11.67;100.00
64544;BME280;50936;51.660;5.616;2022-12-24T14:19:58;101012.53;;;11.76;100.00
64544;BME280;50936;51.660;5.616;2022-12-24T14:22:29;101019.22;;;11.83;100.00
64544;BME280;50936;51.660;5.616;2022-12-24T14:25:03;101019.44;;;11.80;100.00
64544;BME280;50936;51.660;5.616;2022-12-24T14:27:51;101020.09;;;11.71;100.00
64544;BME280;50936;51.660;5.616;2022-12-24T14:30:25;101021.59;;;11.62;100.00
64544;BME280;50936;51.660;5.616;2022-12-24T14:32:54;101020.53;;;11.52;100.00
64544;BME280;50936;51.660;5.616;2022-12-24T14:35:23;101017.59;;;11.42;100.00
64544;BME280;50936;51.660;5.616;2022-12-24T14:38:01;101012.94;;;11.31;100.00
64544;BME280;50936;51.660;5.616;2022-12-24T14:40:33;101013.69;;;11.21;100.00